Time;durP1;ratioP1;P1;durP2;ratioP2;P2;SDS_P1;SDS_P2;PMS_P1;PMS_P2;Temp;Humidity;BMP_temperature;BMP_pressure;BME280_temperature;BME280_humidity;BME280_pressure;Samples;Min_cycle;Max_cycle;Signal;HPM_P1;HPM_P2
2023/05/03 00:01:32;;;;;;;4.80;3.80;;;;;;;19.12;58.99;101169.72;5093822;28;20176;-64
2023/05/03 00:03:57;;;;;;;5.40;3.60;;;;;;;19.12;59.09;101163.19;5093625;28;20162;-64
2023/05/03 00:06:23;;;;;;;5.53;3.57;;;;;;;19.12;58.92;101168.91;5077270;28;20190;-64
2023/05/03 00:08:48;;;;;;;3.90;3.10;;;;;;;19.11;59.14;101168.06;5077637;28;20260;-63
2023/05/03 00:11:14;;;;;;;6.20;3.90;;;;;;;19.11;59.30;101165.19;5073472;28;20237;-63
2023/05/03 00:13:40;;;;;;;5.20;3.50;;;;;;;19.10;59.37;101166.41;5073140;28;20864;-64
2023/05/03 00:16:05;;;;;;;7.60;4.10;;;;;;;19.10;59.25;101160.66;5073164;28;20429;-64
2023/05/03 00:18:31;;;;;;;5.60;3.63;;;;;;;19.10;59.41;101174.97;5072892;28;20229;-64
2023/05/03 00:20:58;;;;;;;4.07;3.03;;;;;;;19.10;59.38;101172.13;5085723;28;20642;-64
2023/05/03 00:23:23;;;;;;;3.60;3.10;;;;;;;19.09;59.32;101159.00;5093137;28;20178;-63
2023/05/03 00:25:55;;;;;;;4.67;3.50;;;;;;;19.10;59.63;101172.13;5088954;28;20448;-64
2023/05/03 00:28:20;;;;;;;4.43;3.50;;;;;;;19.09;59.37;101161.88;5086391;28;20579;-63
2023/05/03 00:30:46;;;;;;;4.13;3.33;;;;;;;19.09;59.61;101159.00;5053408;28;20425;-64
2023/05/03 00:33:11;;;;;;;5.53;4.10;;;;;;;19.09;59.68;101159.00;5072876;28;20752;-64
2023/05/03 00:35:36;;;;;;;4.70;3.70;;;;;;;19.08;59.53;101165.94;5092379;28;20198;-64
2023/05/03 00:38:02;;;;;;;5.00;3.67;;;;;;;19.10;59.74;101163.53;5092872;28;20170;-64
2023/05/03 00:40:27;;;;;;;5.07;3.50;;;;;;;19.09;59.83;101159.00;5056770;28;20179;-64
2023/05/03 00:42:53;;;;;;;3.40;2.90;;;;;;;19.08;59.81;101157.34;5072137;28;20186;-64
2023/05/03 00:45:18;;;;;;;3.63;3.20;;;;;;;19.08;59.81;101167.97;5077245;28;20190;-64
2023/05/03 00:47:44;;;;;;;4.30;3.53;;;;;;;19.09;59.66;101155.31;5092200;28;20245;-64
2023/05/03 00:50:10;;;;;;;4.43;3.53;;;;;;;19.07;59.81;101155.66;5089601;28;20186;-64
2023/05/03 00:52:36;;;;;;;5.70;3.30;;;;;;;19.07;59.90;101149.94;5069594;28;20186;-64
2023/05/03 00:55:02;;;;;;;5.17;4.03;;;;;;;19.08;59.89;101153.66;5051719;28;20426;-64
2023/05/03 00:57:28;;;;;;;4.20;3.40;;;;;;;19.07;59.86;101141.34;5066212;28;20430;-64
2023/05/03 00:59:55;;;;;;;4.70;3.57;;;;;;;19.07;59.89;101144.22;5057105;28;20182;-63
2023/05/03 01:02:21;;;;;;;3.97;3.37;;;;;;;19.07;59.80;101144.22;5071836;28;20498;-64
2023/05/03 01:04:46;;;;;;;4.97;3.77;;;;;;;19.06;60.33;101144.59;5056686;28;20436;-63
2023/05/03 01:07:31;;;;;;;4.33;3.40;;;;;;;19.05;60.42;101143.75;5073611;28;20226;-63
2023/05/03 01:10:15;;;;;;;4.40;3.70;;;;;;;19.04;60.58;101139.25;5092473;28;20174;-64
2023/05/03 01:12:59;;;;;;;4.80;4.20;;;;;;;19.04;60.58;101139.25;5081744;28;21030;-63
2023/05/03 01:15:28;;;;;;;5.50;3.80;;;;;;;19.06;60.45;101131.09;5071980;28;20413;-63
2023/05/03 01:18:02;;;;;;;4.53;3.50;;;;;;;19.05;60.63;101138.03;5065294;28;20432;-63
2023/05/03 01:20:29;;;;;;;5.07;3.43;;;;;;;19.07;60.46;101129.91;5073969;28;20941;-64
2023/05/03 01:22:57;;;;;;;3.93;2.97;;;;;;;19.07;60.29;101124.19;5087890;28;20497;-63
2023/05/03 01:25:23;;;;;;;3.83;3.40;;;;;;;19.06;60.57;101124.56;5092081;28;20408;-64
2023/05/03 01:27:48;;;;;;;3.70;3.30;;;;;;;19.06;60.55;101122.53;5088384;28;20530;-64
2023/05/03 01:30:14;;;;;;;3.50;3.00;;;;;;;19.05;60.57;101118.00;5084315;28;20190;-63
2023/05/03 01:33:06;;;;;;;3.63;3.00;;;;;;;19.06;60.34;101111.06;5053073;28;20183;-64
2023/05/03 01:35:35;;;;;;;5.67;3.90;;;;;;;19.05;60.50;101118.00;5086505;28;20541;-63
2023/05/03 01:38:00;;;;;;;4.00;3.00;;;;;;;19.06;60.36;101110.25;5084058;28;20422;-64
2023/05/03 01:40:26;;;;;;;3.50;2.90;;;;;;;19.04;60.69;101116.34;5078707;28;20432;-64
2023/05/03 01:42:52;;;;;;;4.93;3.20;;;;;;;19.04;60.71;101109.78;5080896;28;20239;-63
2023/05/03 01:45:17;;;;;;;4.60;3.60;;;;;;;19.04;60.74;101109.78;5036487;28;20429;-63
2023/05/03 01:47:43;;;;;;;5.00;3.90;;;;;;;19.04;60.64;101101.19;5088613;28;20725;-63
2023/05/03 01:50:09;;;;;;;3.10;2.80;;;;;;;19.03;60.64;101108.97;5073163;28;20174;-64
2023/05/03 01:52:34;;;;;;;3.90;3.40;;;;;;;19.04;60.57;101110.63;5080665;28;20565;-63
2023/05/03 01:55:00;;;;;;;4.90;3.97;;;;;;;19.04;60.48;101112.63;5073517;28;20175;-64
2023/05/03 01:57:25;;;;;;;3.60;2.87;;;;;;;19.03;60.73;101106.09;5071272;28;20169;-63
2023/05/03 01:59:50;;;;;;;4.93;3.50;;;;;;;19.04;60.57;101106.91;5073216;28;20194;-63
2023/05/03 02:02:16;;;;;;;4.10;3.17;;;;;;;19.03;60.70;101105.25;5069814;28;20172;-63
2023/05/03 02:04:41;;;;;;;4.77;3.57;;;;;;;19.03;60.73;101103.25;5071040;28;20195;-63
2023/05/03 02:07:07;;;;;;;4.83;3.37;;;;;;;19.03;60.73;101106.09;5052448;28;20183;-63
2023/05/03 02:09:33;;;;;;;4.03;3.47;;;;;;;19.04;60.64;101101.19;5069444;28;20265;-63
2023/05/03 02:11:58;;;;;;;3.57;3.07;;;;;;;19.02;60.71;101104.41;5058283;28;20438;-63
2023/05/03 02:14:24;;;;;;;3.87;2.90;;;;;;;19.02;60.69;101104.41;5069877;28;20242;-64
2023/05/03 02:16:50;;;;;;;4.27;3.07;;;;;;;19.02;60.87;101098.69;5070408;28;20163;-63
2023/05/03 02:19:16;;;;;;;3.27;2.97;;;;;;;19.01;60.89;101097.03;5070584;28;20240;-63
2023/05/03 02:21:41;;;;;;;4.00;3.30;;;;;;;19.01;60.88;101099.88;5066919;28;20212;-64
2023/05/03 02:24:06;;;;;;;4.23;3.30;;;;;;;19.01;60.90;101104.78;5072379;28;20652;-63
2023/05/03 02:26:32;;;;;;;4.40;3.33;;;;;;;19.01;61.08;101099.06;5086271;28;20381;-63
2023/05/03 02:28:58;;;;;;;4.30;3.30;;;;;;;19.00;60.97;101098.22;5058814;28;20214;-63
2023/05/03 02:31:24;;;;;;;4.30;3.07;;;;;;;19.01;60.91;101097.03;5070353;28;20242;-63
2023/05/03 02:33:49;;;;;;;6.93;3.50;;;;;;;18.99;60.75;101096.56;5072238;28;20443;-63
2023/05/03 02:36:15;;;;;;;4.30;3.47;;;;;;;19.01;60.87;101099.06;5070648;28;20174;-63
2023/05/03 02:38:40;;;;;;;4.27;3.50;;;;;;;19.02;60.88;101100.72;5051972;28;20202;-64
2023/05/03 02:41:05;;;;;;;3.57;2.73;;;;;;;19.01;60.96;101108.47;5078006;28;20186;-63
2023/05/03 02:43:31;;;;;;;4.90;3.37;;;;;;;19.02;60.95;101112.19;5074379;28;20179;-63
2023/05/03 02:45:56;;;;;;;4.00;3.20;;;;;;;19.00;61.14;101108.81;5070046;28;20174;-63
2023/05/03 02:48:22;;;;;;;5.20;3.63;;;;;;;18.99;60.99;101113.75;5070003;28;20199;-63
2023/05/03 02:50:47;;;;;;;3.87;2.77;;;;;;;19.00;61.17;101106.81;5071858;28;20195;-63
2023/05/03 02:53:13;;;;;;;3.90;2.83;;;;;;;18.98;61.12;101102.66;5069632;28;20171;-63
2023/05/03 02:55:38;;;;;;;3.87;3.10;;;;;;;18.99;60.96;101112.91;5078792;28;20186;-63
2023/05/03 02:58:04;;;;;;;4.00;2.70;;;;;;;18.98;61.04;101112.09;5083031;28;20175;-63
2023/05/03 03:00:29;;;;;;;3.90;3.20;;;;;;;18.99;61.03;101108.03;5070330;28;20259;-63
2023/05/03 03:02:55;;;;;;;4.23;3.13;;;;;;;18.99;61.15;101110.03;5087903;28;20205;-63
2023/05/03 03:05:20;;;;;;;3.83;3.07;;;;;;;18.98;61.16;101112.09;5089953;28;20183;-63
2023/05/03 03:07:45;;;;;;;4.20;3.13;;;;;;;18.98;61.27;101116.97;5079910;28;20203;-63
2023/05/03 03:10:11;;;;;;;3.63;2.73;;;;;;;18.99;61.03;101112.91;5056012;28;20277;-63
2023/05/03 03:12:37;;;;;;;3.90;2.80;;;;;;;18.97;61.36;101110.41;5057447;28;20296;-64
2023/05/03 03:15:02;;;;;;;3.47;2.70;;;;;;;18.96;61.33;101108.72;5030112;28;20188;-63
2023/05/03 03:17:28;;;;;;;4.80;3.47;;;;;;;18.98;61.36;101108.38;5069250;28;20214;-63
2023/05/03 03:19:54;;;;;;;3.70;2.90;;;;;;;18.98;61.44;101100.63;5069761;28;20174;-63
2023/05/03 03:22:19;;;;;;;4.40;2.93;;;;;;;18.97;61.21;101098.94;5051583;28;20690;-63
2023/05/03 03:24:45;;;;;;;3.90;2.97;;;;;;;18.97;61.55;101098.13;5068609;28;20931;-63
2023/05/03 03:27:10;;;;;;;3.63;2.63;;;;;;;18.98;61.16;101103.50;5078951;28;20870;-63
2023/05/03 03:29:35;;;;;;;5.07;3.10;;;;;;;18.97;61.27;101098.94;5068432;28;20179;-63
2023/05/03 03:32:01;;;;;;;4.50;3.50;;;;;;;18.99;61.20;101101.44;5071207;28;20194;-64
2023/05/03 03:34:26;;;;;;;3.57;3.10;;;;;;;18.96;61.43;101100.16;5068137;28;20175;-64
2023/05/03 03:36:52;;;;;;;3.83;3.23;;;;;;;18.98;61.46;101106.34;5069788;28;20182;-63
2023/05/03 03:39:17;;;;;;;3.97;3.03;;;;;;;18.99;61.35;101107.16;5068181;28;20160;-63
2023/05/03 03:41:43;;;;;;;3.70;3.07;;;;;;;18.97;61.21;101104.66;5071561;28;20201;-63
2023/05/03 03:44:08;;;;;;;3.93;2.90;;;;;;;18.98;61.35;101096.94;5063891;28;20621;-64
2023/05/03 03:46:34;;;;;;;3.50;2.90;;;;;;;18.98;61.42;101094.91;5089356;28;20162;-63
2023/05/03 03:48:59;;;;;;;3.10;2.57;;;;;;;18.97;61.23;101104.66;5084582;28;20214;-63
2023/05/03 03:51:25;;;;;;;5.33;3.30;;;;;;;18.98;61.09;101106.34;5075912;28;20183;-64
2023/05/03 03:53:51;;;;;;;3.70;3.23;;;;;;;18.97;61.32;101106.72;5071826;28;20516;-63
2023/05/03 03:56:16;;;;;;;3.23;2.50;;;;;;;18.97;61.32;101115.31;5083790;28;20467;-63
2023/05/03 03:58:42;;;;;;;3.30;3.00;;;;;;;18.97;61.50;101104.66;5072155;28;20178;-63
2023/05/03 04:01:07;;;;;;;3.77;2.70;;;;;;;18.95;61.23;101107.06;5073722;28;20178;-64
2023/05/03 04:03:33;;;;;;;4.53;3.27;;;;;;;18.97;61.38;101103.84;5089239;28;20244;-63
2023/05/03 04:05:58;;;;;;;4.87;2.80;;;;;;;18.95;61.35;101112.78;5091994;28;20860;-63
2023/05/03 04:08:23;;;;;;;3.17;2.60;;;;;;;18.94;61.74;101105.41;5085618;28;20577;-63
2023/05/03 04:10:49;;;;;;;3.80;2.70;;;;;;;18.95;61.60;101106.22;5089839;28;20573;-63
2023/05/03 04:13:15;;;;;;;3.37;2.90;;;;;;;18.93;61.66;101106.63;5076476;28;20231;-63
2023/05/03 04:15:40;;;;;;;3.93;3.10;;;;;;;18.92;61.82;101104.13;5079654;28;20193;-63
2023/05/03 04:18:06;;;;;;;3.70;2.60;;;;;;;18.94;61.58;101102.56;5092757;28;20163;-63
2023/05/03 04:20:32;;;;;;;4.53;2.60;;;;;;;18.94;61.55;101113.16;5090340;28;20265;-64
2023/05/03 04:22:59;;;;;;;3.77;3.13;;;;;;;18.92;61.69;101096.34;5073047;28;20189;-63
2023/05/03 04:25:24;;;;;;;3.30;2.93;;;;;;;18.92;61.74;101107.78;5072365;28;20414;-63
2023/05/03 04:27:50;;;;;;;4.10;2.80;;;;;;;18.92;61.67;101107.78;5074392;28;20476;-64
2023/05/03 04:30:16;;;;;;;3.60;2.70;;;;;;;18.94;61.69;101105.41;5072403;28;20174;-63
2023/05/03 04:32:42;;;;;;;3.83;3.03;;;;;;;18.93;61.47;101108.63;5073096;28;20193;-64
2023/05/03 04:35:09;;;;;;;3.67;2.63;;;;;;;18.94;61.57;101107.44;5092647;28;20186;-64
2023/05/03 04:37:38;;;;;;;3.50;2.90;;;;;;;18.92;61.65;101102.06;5085673;28;20214;-64
2023/05/03 04:40:08;;;;;;;3.50;2.90;;;;;;;18.93;61.57;101106.63;5084452;28;20440;-64
2023/05/03 04:42:34;;;;;;;4.67;3.10;;;;;;;18.91;61.54;101100.41;5084637;28;20424;-63
2023/05/03 04:45:01;;;;;;;3.40;2.70;;;;;;;18.92;61.72;101106.97;5075182;28;20441;-63
2023/05/03 04:47:27;;;;;;;3.67;2.77;;;;;;;18.92;61.64;101101.25;5092061;28;20262;-64
2023/05/03 04:49:53;;;;;;;6.40;2.97;;;;;;;18.91;61.66;101106.13;5073629;28;20443;-64
2023/05/03 04:52:18;;;;;;;4.70;2.83;;;;;;;18.92;61.69;101107.78;5073419;28;20225;-64
2023/05/03 04:54:44;;;;;;;3.20;2.80;;;;;;;18.92;61.81;101113.50;5070093;28;20172;-64
2023/05/03 04:57:10;;;;;;;4.03;3.13;;;;;;;18.92;61.39;101107.78;5070585;28;20182;-64
2023/05/03 04:59:35;;;;;;;3.43;2.80;;;;;;;18.92;61.50;101122.09;5070839;28;20904;-64
2023/05/03 05:02:01;;;;;;;3.80;2.87;;;;;;;18.92;61.73;101110.66;5088269;28;20243;-64
2023/05/03 05:04:26;;;;;;;3.80;2.73;;;;;;;18.96;61.48;101117.31;5087794;28;20259;-64
2023/05/03 05:06:52;;;;;;;6.17;2.67;;;;;;;18.95;61.75;101121.38;5055672;28;20666;-64
2023/05/03 05:09:22;;;;;;;3.20;2.63;;;;;;;18.95;61.66;101107.06;5053540;28;20213;-64
2023/05/03 05:11:47;;;;;;;3.37;2.60;;;;;;;18.95;61.69;101109.94;5070719;28;20475;-64
2023/05/03 05:14:13;;;;;;;2.97;2.53;;;;;;;18.94;61.88;101116.88;5070912;28;20814;-64
2023/05/03 05:16:38;;;;;;;3.40;2.60;;;;;;;18.95;61.87;101112.78;5085587;28;20193;-63
2023/05/03 05:19:03;;;;;;;3.67;2.70;;;;;;;18.96;61.57;101122.22;5073423;28;20614;-63
2023/05/03 05:21:29;;;;;;;3.13;2.60;;;;;;;18.97;61.79;101126.75;5091690;28;20173;-63
2023/05/03 05:23:54;;;;;;;3.47;2.80;;;;;;;18.96;61.84;101113.66;5089658;28;20591;-64
2023/05/03 05:26:20;;;;;;;3.73;3.00;;;;;;;18.98;61.64;101120.66;5074850;28;20994;-64
2023/05/03 05:28:45;;;;;;;3.10;2.67;;;;;;;18.99;61.52;101118.63;5055240;28;20282;-64
2023/05/03 05:31:11;;;;;;;3.30;2.67;;;;;;;18.97;61.47;101124.69;5071520;28;20955;-63
2023/05/03 05:33:37;;;;;;;3.20;2.63;;;;;;;18.97;61.50;101124.69;5071421;28;20205;-63
2023/05/03 05:36:03;;;;;;;3.80;2.73;;;;;;;18.97;61.42;101124.69;5085570;28;20426;-63
2023/05/03 05:38:28;;;;;;;3.87;2.70;;;;;;;18.97;61.63;101118.97;5052176;28;20163;-63
2023/05/03 05:40:54;;;;;;;3.80;3.20;;;;;;;18.96;61.74;101128.75;5070185;28;20228;-64
2023/05/03 05:43:20;;;;;;;3.00;2.50;;;;;;;18.95;61.66;101126.25;5074551;28;20212;-64
2023/05/03 05:45:45;;;;;;;3.40;2.63;;;;;;;18.95;61.70;101112.78;5091320;28;20409;-64
2023/05/03 05:48:10;;;;;;;3.87;2.60;;;;;;;18.95;61.84;101123.41;5071218;28;20202;-63
2023/05/03 05:50:36;;;;;;;3.23;2.67;;;;;;;18.93;61.94;101120.94;5082342;28;20183;-64
2023/05/03 05:53:01;;;;;;;3.10;2.43;;;;;;;18.94;61.79;101131.16;5070852;28;20197;-63
2023/05/03 05:55:27;;;;;;;4.10;3.03;;;;;;;18.93;62.12;101120.94;5055399;28;20175;-64
2023/05/03 05:57:52;;;;;;;3.50;2.60;;;;;;;18.92;62.03;101116.38;5073572;28;20507;-63
2023/05/03 06:00:18;;;;;;;2.93;2.47;;;;;;;18.93;61.90;101120.94;5070635;28;20547;-63
2023/05/03 06:02:44;;;;;;;3.63;2.63;;;;;;;18.93;61.72;101118.06;5088599;28;20692;-63
2023/05/03 06:05:10;;;;;;;3.27;2.53;;;;;;;18.94;61.64;101122.59;5067641;28;20207;-64
2023/05/03 06:07:35;;;;;;;3.13;2.40;;;;;;;18.94;61.67;101122.59;5054257;28;20203;-64
2023/05/03 06:10:01;;;;;;;2.60;2.30;;;;;;;18.95;61.80;101132.81;5070383;28;20425;-64
2023/05/03 06:12:27;;;;;;;3.50;2.57;;;;;;;18.94;62.11;101130.31;5052461;28;20202;-64
2023/05/03 06:14:52;;;;;;;3.30;2.40;;;;;;;18.94;61.84;101139.75;5088387;28;20915;-64
2023/05/03 06:17:18;;;;;;;3.80;2.40;;;;;;;18.93;62.26;101125.81;5052327;28;20187;-65
2023/05/03 06:19:43;;;;;;;3.20;2.73;;;;;;;18.93;61.88;101129.50;5073241;28;20186;-65
2023/05/03 06:22:09;;;;;;;3.20;2.50;;;;;;;18.93;62.24;101137.25;5090412;28;20329;-64
2023/05/03 06:24:34;;;;;;;3.20;2.70;;;;;;;18.94;61.85;101131.16;5088409;28;20171;-65
2023/05/03 06:27:00;;;;;;;3.30;2.70;;;;;;;18.93;61.93;101131.53;5069986;28;20206;-64
2023/05/03 06:29:25;;;;;;;3.43;2.70;;;;;;;18.92;62.21;101124.16;5069922;28;20199;-64
2023/05/03 06:31:51;;;;;;;3.43;2.47;;;;;;;18.93;62.18;101126.66;5054046;28;20270;-63
2023/05/03 06:34:20;;;;;;;3.00;2.40;;;;;;;18.93;61.91;101126.66;5072039;28;20279;-63
2023/05/03 06:36:46;;;;;;;3.30;2.60;;;;;;;18.92;62.31;101127.81;5070024;28;20254;-63
2023/05/03 06:39:12;;;;;;;3.30;2.40;;;;;;;18.93;62.31;101125.81;5072351;28;20527;-63
2023/05/03 06:41:37;;;;;;;2.93;2.37;;;;;;;18.94;61.82;101122.59;5051685;28;20167;-63
2023/05/03 06:44:03;;;;;;;3.40;2.60;;;;;;;18.93;61.94;101123.78;5069361;28;20256;-64
2023/05/03 06:46:28;;;;;;;3.03;2.20;;;;;;;18.93;62.24;101109.47;5057563;28;20215;-63
2023/05/03 06:48:56;;;;;;;3.10;2.40;;;;;;;18.93;61.89;101118.06;5069494;28;20206;-63
2023/05/03 06:51:26;;;;;;;3.50;2.30;;;;;;;18.94;61.85;101114.00;5072140;28;20665;-63
2023/05/03 06:53:53;;;;;;;3.20;2.20;;;;;;;18.92;62.04;101119.22;5085408;28;20425;-63
2023/05/03 06:56:19;;;;;;;2.90;2.50;;;;;;;18.92;62.06;101124.16;5090232;28;20416;-63
2023/05/03 06:58:44;;;;;;;3.53;2.73;;;;;;;18.92;62.26;101121.28;5090239;28;20416;-63
2023/05/03 07:01:09;;;;;;;3.00;2.10;;;;;;;18.92;62.18;101110.66;5053324;28;20190;-63
2023/05/03 07:03:36;;;;;;;2.80;2.27;;;;;;;18.93;62.39;101122.94;5053989;28;20179;-63
2023/05/03 07:06:02;;;;;;;3.00;2.20;;;;;;;18.93;61.94;101118.06;5069947;28;20664;-63
2023/05/03 07:08:28;;;;;;;2.87;2.53;;;;;;;18.96;61.95;101114.47;5055016;28;20482;-63
2023/05/03 07:10:53;;;;;;;3.73;2.50;;;;;;;18.97;62.08;101115.31;5070682;28;20421;-63
2023/05/03 07:13:19;;;;;;;3.10;2.37;;;;;;;18.93;62.08;101120.94;5069082;28;20242;-63
2023/05/03 07:15:44;;;;;;;3.03;2.10;;;;;;;18.93;62.28;101120.09;5069669;28;20174;-63
2023/05/03 07:18:10;;;;;;;2.50;2.17;;;;;;;18.93;61.88;101123.78;5071201;28;20174;-63
2023/05/03 07:20:35;;;;;;;3.10;2.30;;;;;;;18.96;62.10;101125.09;5034924;28;20179;-63
2023/05/03 07:23:01;;;;;;;2.70;2.10;;;;;;;18.95;61.85;101112.78;5068522;28;20250;-64
2023/05/03 07:25:26;;;;;;;3.40;2.67;;;;;;;18.96;62.45;101119.38;5070562;28;20186;-64
2023/05/03 07:27:52;;;;;;;3.10;2.40;;;;;;;18.94;62.49;101122.59;5068515;28;20217;-63
2023/05/03 07:30:17;;;;;;;2.93;2.00;;;;;;;18.94;62.41;101110.28;5070578;28;20183;-63
2023/05/03 07:32:43;;;;;;;4.00;2.60;;;;;;;18.94;62.46;101122.59;5068596;28;20187;-63
2023/05/03 07:35:09;;;;;;;2.80;2.40;;;;;;;18.94;62.60;101118.88;5049774;28;20186;-63
2023/05/03 07:37:37;;;;;;;3.10;2.37;;;;;;;18.95;62.22;101115.66;5071218;28;20171;-63
2023/05/03 07:40:05;;;;;;;3.10;2.43;;;;;;;18.96;62.40;101105.88;5072640;28;20425;-64
2023/05/03 07:42:31;;;;;;;2.93;2.30;;;;;;;18.96;62.28;101110.78;5054867;28;20428;-63
2023/05/03 07:44:56;;;;;;;3.30;2.50;;;;;;;18.95;62.37;101115.66;5072686;28;20436;-63
2023/05/03 07:47:22;;;;;;;3.63;2.40;;;;;;;18.93;62.47;101115.19;5074005;28;20183;-63
2023/05/03 07:49:49;;;;;;;3.30;2.60;;;;;;;18.93;62.96;101118.06;5045025;28;20297;-63
2023/05/03 07:52:15;;;;;;;2.70;2.27;;;;;;;18.94;62.68;101110.28;5054689;28;20250;-63
2023/05/03 07:54:42;;;;;;;2.93;2.30;;;;;;;18.93;62.49;101109.47;5091223;28;20507;-63
2023/05/03 07:57:07;;;;;;;2.57;2.07;;;;;;;18.93;62.77;101103.75;5083942;28;20428;-64
2023/05/03 07:59:33;;;;;;;3.30;2.27;;;;;;;18.93;62.57;101100.91;5080722;28;20444;-63
2023/05/03 08:01:58;;;;;;;3.90;2.47;;;;;;;18.93;62.59;101106.63;5070012;28;20182;-64
2023/05/03 08:04:24;;;;;;;2.70;2.13;;;;;;;18.94;62.08;101101.72;5089975;28;20174;-64
2023/05/03 08:06:49;;;;;;;4.63;2.70;;;;;;;18.93;62.70;101109.47;5089652;28;20308;-64
2023/05/03 08:09:15;;;;;;;4.73;2.60;;;;;;;18.94;62.62;101110.28;5052412;28;20251;-64
2023/05/03 08:11:40;;;;;;;2.67;2.17;;;;;;;18.94;61.99;101122.59;5072434;28;20939;-64
2023/05/03 08:14:06;;;;;;;2.97;2.30;;;;;;;18.94;62.08;101111.13;5072570;28;20223;-64
2023/05/03 08:16:31;;;;;;;2.90;2.03;;;;;;;18.93;62.51;101120.94;5077766;28;20228;-63
2023/05/03 08:18:57;;;;;;;3.53;2.57;;;;;;;18.95;62.19;101120.53;5092302;28;20171;-64
2023/05/03 08:21:23;;;;;;;2.70;2.20;;;;;;;18.95;62.16;101124.25;5090138;28;20174;-63
2023/05/03 08:23:50;;;;;;;2.90;2.37;;;;;;;18.95;62.61;101121.38;5075057;28;20253;-63
2023/05/03 08:26:16;;;;;;;2.50;1.80;;;;;;;18.95;62.17;101129.97;5071872;28;20417;-63
2023/05/03 08:28:41;;;;;;;2.60;1.97;;;;;;;18.94;62.46;101128.31;5074515;28;20697;-63
2023/05/03 08:31:07;;;;;;;3.97;2.80;;;;;;;18.94;62.46;101128.31;5057437;28;20626;-64
2023/05/03 08:33:32;;;;;;;3.40;2.40;;;;;;;18.94;62.07;101128.31;5075566;28;20667;-63
2023/05/03 08:35:58;;;;;;;2.67;2.13;;;;;;;18.93;62.78;101125.81;5072152;28;20191;-63
2023/05/03 08:38:23;;;;;;;3.27;2.87;;;;;;;18.93;62.73;101120.94;5071744;28;20171;-64
2023/05/03 08:40:50;;;;;;;2.90;2.20;;;;;;;18.94;62.11;101121.75;5082640;28;20218;-64
2023/05/03 08:43:16;;;;;;;3.50;2.20;;;;;;;18.98;62.05;101126.38;5078747;28;20290;-63
2023/05/03 08:45:41;;;;;;;3.27;2.27;;;;;;;18.95;62.40;101120.53;5074047;28;20451;-63
2023/05/03 08:48:07;;;;;;;3.00;2.00;;;;;;;18.92;62.53;101127.00;5072176;28;20445;-63
2023/05/03 08:50:36;;;;;;;2.57;2.03;;;;;;;18.94;62.40;101134.03;5071244;28;20233;-64
2023/05/03 08:53:03;;;;;;;3.33;2.70;;;;;;;18.92;62.50;101116.38;5070721;28;20642;-64
2023/05/03 08:55:28;;;;;;;3.27;2.20;;;;;;;18.92;62.56;101119.22;5073906;28;20445;-63
2023/05/03 08:57:54;;;;;;;4.07;2.37;;;;;;;18.94;62.56;101116.00;5071548;28;20406;-63
2023/05/03 09:00:28;;;;;;;3.23;2.63;;;;;;;18.93;62.34;101120.94;5070770;28;20163;-63
2023/05/03 09:02:54;;;;;;;2.93;2.37;;;;;;;18.95;62.43;101111.94;5068142;28;20197;-64
2023/05/03 09:05:20;;;;;;;2.57;2.00;;;;;;;18.95;62.40;101117.69;5077736;28;20987;-63
2023/05/03 09:08:02;;;;;;;3.87;2.80;;;;;;;18.95;62.12;101109.94;5083518;28;20281;-63
2023/05/03 09:10:28;;;;;;;3.47;1.90;;;;;;;18.95;62.28;101106.22;5090836;28;20178;-63
2023/05/03 09:12:58;;;;;;;3.90;2.40;;;;;;;18.95;62.57;101107.06;5075892;28;21041;-63
2023/05/03 09:15:23;;;;;;;2.80;2.20;;;;;;;18.95;61.89;101109.94;5060819;28;20278;-63
2023/05/03 09:18:20;;;;;;;3.50;2.37;;;;;;;18.96;62.06;101108.72;5091484;28;20511;-63
2023/05/03 09:20:52;;;;;;;3.33;2.67;;;;;;;18.97;62.49;101110.41;5060669;28;20182;-63
2023/05/03 09:23:19;;;;;;;2.83;2.13;;;;;;;18.97;62.25;101112.44;5058362;28;20503;-63
2023/05/03 09:25:50;;;;;;;3.70;2.67;;;;;;;18.96;62.56;101107.91;5052977;28;20448;-63
2023/05/03 09:28:16;;;;;;;2.63;2.17;;;;;;;18.95;62.68;101107.06;5074646;28;20503;-64
2023/05/03 09:30:42;;;;;;;2.47;1.80;;;;;;;18.96;62.43;101094.44;5061183;28;20924;-63
2023/05/03 09:33:07;;;;;;;3.33;2.20;;;;;;;18.96;62.07;101108.72;5057076;28;20422;-63
2023/05/03 09:35:33;;;;;;;2.63;2.03;;;;;;;18.96;62.44;101102.19;5052625;28;20801;-64
2023/05/03 09:37:59;;;;;;;2.70;1.90;;;;;;;18.96;62.29;101100.16;5090810;28;20263;-63
2023/05/03 09:40:28;;;;;;;3.17;2.40;;;;;;;18.96;62.24;101097.28;5088932;28;21003;-64
2023/05/03 09:43:13;;;;;;;3.80;2.53;;;;;;;18.96;62.79;101096.47;5072015;28;20193;-64
2023/05/03 09:45:38;;;;;;;3.57;2.30;;;;;;;18.96;62.60;101096.47;5069906;28;20507;-64
2023/05/03 09:48:04;;;;;;;3.00;2.20;;;;;;;18.97;62.59;101098.94;5052204;28;20805;-63
2023/05/03 09:50:31;;;;;;;2.67;1.87;;;;;;;18.97;62.48;101095.28;5075342;28;20182;-63
2023/05/03 09:52:59;;;;;;;2.50;1.93;;;;;;;18.97;62.32;101098.94;5090317;28;20417;-63
2023/05/03 09:55:24;;;;;;;4.33;2.43;;;;;;;18.98;62.32;101094.91;5069420;28;20504;-63
2023/05/03 09:57:50;;;;;;;3.10;2.07;;;;;;;18.97;61.78;101093.22;5080359;28;20437;-63
2023/05/03 10:00:19;;;;;;;2.70;2.00;;;;;;;18.96;62.25;101097.28;5052881;28;20181;-63
2023/05/03 10:02:46;;;;;;;3.20;2.20;;;;;;;18.97;62.33;101081.78;5055988;28;20506;-63
2023/05/03 10:05:11;;;;;;;4.47;2.23;;;;;;;18.97;62.10;101084.63;5075892;28;20440;-64
2023/05/03 10:07:38;;;;;;;2.97;2.33;;;;;;;18.96;62.88;101080.13;5070323;28;20437;-63
2023/05/03 10:10:04;;;;;;;4.33;2.10;;;;;;;18.97;62.45;101081.78;5072357;28;20225;-63
2023/05/03 10:12:30;;;;;;;3.17;2.03;;;;;;;18.96;62.42;101080.13;5052111;28;20884;-63
2023/05/03 10:14:55;;;;;;;2.50;2.10;;;;;;;18.96;62.49;101076.44;5052157;28;20159;-63
2023/05/03 10:17:26;;;;;;;2.87;2.20;;;;;;;18.96;62.64;101067.84;5052580;28;20544;-63
2023/05/03 10:19:57;;;;;;;2.93;1.70;;;;;;;18.96;62.45;101070.72;5035769;28;20617;-63
2023/05/03 10:22:22;;;;;;;3.50;2.20;;;;;;;18.96;62.35;101074.41;5056661;28;20443;-64
2023/05/03 10:25:08;;;;;;;2.93;2.20;;;;;;;18.98;62.24;101063.44;5066191;28;21271;-63
2023/05/03 10:27:43;;;;;;;3.00;1.90;;;;;;;18.97;62.83;101058.06;5048353;28;20745;-64
2023/05/03 10:30:33;;;;;;;2.50;1.80;;;;;;;18.97;62.62;101055.22;5049194;28;20428;-63
2023/05/03 10:33:19;;;;;;;3.40;2.50;;;;;;;18.98;62.37;101060.56;5055743;28;20479;-63
2023/05/03 10:35:51;;;;;;;2.63;1.93;;;;;;;18.99;62.42;101042.19;5076081;28;20432;-63
2023/05/03 10:38:19;;;;;;;3.07;2.53;;;;;;;18.98;62.65;101051.16;5074590;28;20791;-64
2023/05/03 10:40:45;;;;;;;2.67;2.07;;;;;;;18.99;62.71;101045.06;5079520;28;20429;-63
2023/05/03 10:43:31;;;;;;;3.10;1.90;;;;;;;18.98;62.47;101052.00;5069381;28;21019;-63
2023/05/03 10:46:00;;;;;;;3.30;2.10;;;;;;;18.96;62.77;101042.91;5088655;28;20224;-64
2023/05/03 10:48:27;;;;;;;3.10;2.17;;;;;;;18.94;62.83;101039.59;5089482;28;20448;-63
2023/05/03 10:50:52;;;;;;;2.73;2.10;;;;;;;18.96;62.78;101031.47;5089026;28;20429;-63
2023/05/03 10:53:34;;;;;;;2.80;2.27;;;;;;;18.95;62.81;101032.69;5078809;28;20433;-63
2023/05/03 10:56:09;;;;;;;3.13;2.30;;;;;;;18.98;62.83;101031.97;5068499;28;20343;-63
2023/05/03 10:58:45;;;;;;;3.00;1.97;;;;;;;18.97;62.65;101030.25;5051358;28;20394;-63
2023/05/03 11:01:17;;;;;;;3.03;2.20;;;;;;;18.97;62.71;101030.25;5069739;28;20463;-63
2023/05/03 11:04:06;;;;;;;3.17;2.33;;;;;;;18.99;62.66;101015.59;5071544;28;20453;-63
2023/05/03 11:06:36;;;;;;;3.17;1.90;;;;;;;18.98;62.94;101023.38;5038872;28;20441;-63
2023/05/03 11:09:03;;;;;;;6.33;1.93;;;;;;;18.98;62.99;101019.66;5051824;28;20559;-63
2023/05/03 11:11:29;;;;;;;2.90;2.20;;;;;;;19.00;62.42;101002.94;5072284;28;20512;-63
2023/05/03 11:13:55;;;;;;;3.07;2.20;;;;;;;18.99;62.59;101013.59;5069142;28;20475;-63
2023/05/03 11:16:21;;;;;;;2.90;2.30;;;;;;;19.00;62.67;101011.53;5089554;28;20422;-63
2023/05/03 11:18:47;;;;;;;3.30;2.13;;;;;;;18.98;62.71;101006.19;5071814;28;20166;-64
2023/05/03 11:21:13;;;;;;;3.60;2.17;;;;;;;18.99;62.70;100999.28;5039855;28;20187;-63
2023/05/03 11:23:38;;;;;;;3.13;1.93;;;;;;;19.01;62.41;101002.59;5069544;28;21067;-63